Tiempo atmosférico en la estación meteorológica de Barcelona Aeropuerto, Barcelona (4 m.)

Fecha
DESCASC
Temp. máxima en grados centígrados (hora)
DESCASC
Temp. mínima en grados centígrados (hora)
DESCASC
Temp. media en grados centígrados
DESCASC
Racha de viento máxima en m/sg (hora)
DESCASC
Velocidad máxima media en intervalos de 10 minutos(hora)
DESCASC
Precipitaciones diarias en mm
DESCASC
Precipitaciones de 00:00 a 06:00 en mm
DESCASC
Precipitaciones de 06:00 a 12:00 en mm
DESCASC
Precipitaciones de 12:00 a 18:00 en mm
DESCASC
Precipitaciones de 18:00 a 24:00 en mm
DESCASC
22-10-2017 22.5 (16:20) 15.8 (09:00) 19.2 10.83 (14:30) 8.06 (14:30) 0.1 0.1 0 0 0
21-10-2017 24.1 (17:00) 15 (08:00) 19.6 7.78 (16:50) 6.11 (17:00) -- -- -- -- 0
20-10-2017 23.3 (16:50) 16.4 (06:00) 19.8 7.22 (02:00) 5.28 (13:50) -- 10 1.7 0.6 --
19-10-2017 -- (--) -- (--) -- -- (--) -- (--) -- 10.2 2.1 21 --
18-10-2017 24.3 (11:40) 16.1 (00:00) 20.2 16.11 (19:10) 9.72 (19:10) 27.3 0 0 0.3 27
17-10-2017 24.8 (15:40) 16.3 (00:00) 20.5 8.33 (11:10) 4.72 (09:40) 0 0 0 0 0
16-10-2017 25.1 (14:00) 17.7 (00:00) 21.4 7.22 (11:10) 4.72 (08:40) 0 0 0 0 0
15-10-2017 25 (15:30) 17.2 (00:00) 21.1 7.22 (15:00) 4.44 (07:50) 0 0 0 0 0
14-10-2017 24.9 (14:50) 18.8 (00:00) 21.8 9.17 (12:20) 5.56 (13:40) 0 0 0 0 0
13-10-2017 25.3 (14:50) 18.2 (00:00) 21.8 6.11 (13:50) 4.44 (09:30) 0 0 0 0 0
12-10-2017 25.5 (15:00) 17.9 (00:00) 21.7 8.89 (17:40) 6.94 (17:10) 0 0 0 0 0
11-10-2017 25.1 (15:10) 17.4 (00:00) 21.3 10.83 (17:00) 8.33 (16:50) 0 0 0 0 0
10-10-2017 25.1 (15:50) 17 (00:00) 21.1 7.78 (01:40) 4.72 (16:10) 0 0 0 0 0
09-10-2017 24.5 (14:20) 15.2 (00:00) 19.8 8.89 (16:10) 6.11 (15:20) 0 0 0 0 0
08-10-2017 -- (--) -- (--) -- -- (--) -- (--) -- -- -- 0 0
07-10-2017 22.9 (00:30) 16.8 (00:00) 19.8 8.33 (11:40) 5.56 (02:40) 0 0 0 0 0
06-10-2017 26 (13:00) 19.3 (00:00) 22.6 9.72 (15:20) 6.39 (15:40) 0 0 0 0 0
05-10-2017 25.5 (14:20) 18.7 (00:00) 22.1 11.39 (12:30) 9.17 (14:00) 0 0 0 0 0
04-10-2017 -- (--) -- (--) -- 8.33 (16:00) 5.83 (16:10) 0 0 0 0 0
03-10-2017 25.5 (15:50) 19.5 (00:00) 22.5 8.33 (18:50) 5.28 (15:00) 0 0 0 0 0
02-10-2017 25 (15:20) 19.1 (00:00) 22.1 8.33 (04:30) 4.17 (16:40) 0 0 0 0 0
01-10-2017 21.6 (16:40) 18.4 (00:00) 20 11.67 (23:30) 5 (12:10) 4.1 3.3 0.8 0 0
30-09-2017 24.2 (15:00) 17.3 (00:00) 20.8 10.83 (13:30) 8.06 (14:10) 12.1 0 0 0.2 11.9
29-09-2017 25.1 (11:40) 17.6 (00:00) 21.4 8.89 (11:50) 6.11 (18:10) 0 0 0 0 0
28-09-2017 25.5 (12:20) 18 (00:00) 21.8 7.22 (01:00) 4.44 (09:20) 0 0 0 0 0
27-09-2017 25.2 (13:40) 17.1 (00:00) 21.2 8.33 (14:30) 5.83 (14:50) 0 0 0 0 0
26-09-2017 25.1 (13:40) 17.8 (00:00) 21.4 9.17 (21:30) 6.67 (14:50) 0 0 0 0 0
25-09-2017 26 (14:30) 19.2 (00:00) 22.6 12.78 (18:20) 9.72 (18:20) 1.8 0 0 0 1.8
24-09-2017 26 (15:50) 18.6 (00:00) 22.3 10.83 (13:30) 8.33 (15:10) 0 0 0 0 0
23-09-2017 25.4 (15:20) 17.2 (00:00) 21.3 8.33 (16:10) 5.83 (09:40) 0 0 0 0 0

Gráficas

Temp. máximas Temp. mínimas Temp. medias Precipitaciones Rachas de viento máximas Velocidades máximas media en intervalos de 10 minutos

Datos horarios

Fecha y hora oficial Temperatura (ºC) Velocidad del viento (km/h) Dirección del viento Racha (km/h) Dirección de racha Precipitación (mm) Presión (hPa) Tendencia (hPa) Humedad (%)
2017-10-22 23:00:00 16.9 8 Norte 13 Noroeste 0 1024 0.8 57
2017-10-22 22:00:00 17.1 9 Norte 15 Norte 0 1023.6 1.2 59
2017-10-22 21:00:00 17.5 6 Norte 13 Norte 0 1023.4 1.4 60
2017-10-22 20:00:00 18.6 9 Noroeste 13 Noroeste 0 1023.2 1.3 59
2017-10-22 19:00:00 19.9 8 Oeste 21 Sudoeste 0 1022.4 0.3 53
2017-10-22 18:00:00 21.1 15 Sudoeste 28 Sudoeste 0 1022 -0.4 46
2017-10-22 17:00:00 21.7 22 Sudoeste 33 Sudoeste 0 1021.9 -1.1 45
2017-10-22 16:00:00 22.2 24 Sudoeste 39 Sudoeste 0 1022.1 -1.9 40
2017-10-22 15:00:00 21.8 27 Sudoeste 39 Sudoeste 0 1022.4 -2.3 43
2017-10-22 14:00:00 21.2 15 Sur 28 Sudoeste 0 1023 -1.5 45
2017-10-22 13:00:00 20.5 5 Nordeste 26 Norte 0 1024 -0.5 46
2017-10-22 12:00:00 18.8 15 Norte 22 Norte 0 1024.7 0.8 51
2017-10-22 11:00:00 17.9 14 Norte 26 Norte 0 1024.5 1.2 53
2017-10-22 10:00:00 16.4 19 Norte 26 Norte 0 1024.5 1.9 57
2017-10-22 09:00:00 15.8 17 Norte 30 Norte 0 1023.9 1.3 57
2017-10-22 08:00:00 16.2 17 Norte 26 Norte 0 1023.3 1.3 56
2017-10-22 07:00:00 16.6 17 Norte 24 Norte 0 1022.6 0.1 56
2017-10-22 06:00:00 17.4 17 Norte 24 Norte 0 1022.6 0.4 56
2017-10-22 05:00:00 18.2 10 Norte 17 Norte 0 1022 -0.3 62
2017-10-22 04:00:00 19.6 6 Nordeste 22 Sudeste 0.1 1022.5 0.6 81
2017-10-22 03:00:00 20.5 13 Sudeste 24 Este 0 1022.2 0.6 78
2017-10-22 02:00:00 20.5 8 Norte 17 Norte 0 1022.3 1 81
2017-10-22 01:00:00 20 3 Oeste 9 Norte 0 1021.9 1.1 81
2017-10-22 00:00:00 20.2 8 Norte 18 Norte 0 1021.6 1.3 78
2017-10-21 23:00:00 19.7 12 Norte 17 Norte 0 1021.3 1.4 80
2017-10-21 22:00:00 19.9 8 Norte 13 Oeste 0 1020.8 1.3 80
2017-10-21 21:00:00 21.2 13 Oeste 17 Oeste 0 1020.3 1 84
2017-10-21 20:00:00 21.4 15 Oeste 22 Oeste 0 1019.9 0.8 82
2017-10-21 19:00:00 22.1 15 Oeste 21 Oeste 0 1019.5 0.5 77
2017-10-21 18:00:00 23.1 14 Sudoeste 28 Sudoeste 0 1019.3 0 71
2017-10-21 17:00:00 23.9 22 Sudoeste 28 Sudoeste 0 1019.1 -0.9 64
2017-10-21 16:00:00 23.7 18 Sudoeste 26 Sudoeste 0 1019 -1.5 65
2017-10-21 15:00:00 23.6 17 Sudoeste 24 Sudoeste -- 1019.3 -1.4 65
2017-10-21 14:00:00 23.5 17 Sudoeste 24 Sudoeste 0 1020 -0.5 66
2017-10-21 13:00:00 22.9 18 Sudoeste 26 Sudoeste -- 1020.5 0.4 67
2017-10-21 12:00:00 22.4 19 Sudoeste 26 Sudoeste 0 1020.7 1.2 68
2017-10-21 11:00:00 21.6 19 Sudoeste 26 Sudoeste 0 1020.5 1.4 70
2017-10-21 10:00:00 18.6 2 Noroeste 13 Norte 0 1020.1 0.9 79
2017-10-21 09:00:00 15.7 10 Norte 15 Norte 0 1019.5 0.8 87
2017-10-21 08:00:00 15.1 4 Norte 11 Norte 0 1019.1 0.2 90
2017-10-21 07:00:00 15.7 6 Norte 18 Norte 0.8 1019.2 -0.2 88
2017-10-21 06:00:00 16.1 14 Norte 18 Norte -- 1018.7 -1 88
2017-10-21 05:00:00 16.4 11 Norte 17 Norte 2 1018.9 -1.1 89
2017-10-21 04:00:00 16.5 11 Norte 15 Norte 0.6 1019.4 -0.6 91
2017-10-21 03:00:00 16.7 9 Norte 13 Norte 0 1019.7 -0.6 91
2017-10-21 02:00:00 17.1 4 Norte 13 Nordeste 0.1 1020 -0.3 90
2017-10-21 01:00:00 17.3 3 Norte 11 Norte 0.1 1020 0 90
2017-10-21 00:00:00 17.8 4 Norte 9 Norte 0.2 1020.3 0.8 90
2017-10-20 23:00:00 18.7 5 Norte 11 Noroeste 0.3 1020.3 1.3 88
2017-10-20 22:00:00 19.3 6 Noroeste 8 Noroeste 0 1020 1.6 85
2017-10-20 21:00:00 20.1 3 Noroeste 8 Noroeste 0 1019.5 1.3 83
2017-10-20 20:00:00 20.7 6 Oeste 13 Noroeste 0 1019 0.9 79
2017-10-20 19:00:00 21.7 8 Sudeste 17 Sudeste 0 1018.4 0.5 73
2017-10-20 18:00:00 22.2 10 Sudeste 17 Sudeste 0 1018.2 0.3 71
2017-10-20 17:00:00 23.2 9 Sudeste 18 Este 0 1018.1 -0.1 66
2017-10-20 16:00:00 22.7 8 Este 13 Este 0 1017.9 -0.5 67
2017-10-20 15:00:00 21.5 6 Sudeste 22 Sudeste 0.1 1017.9 0 73
2017-10-20 14:00:00 21.3 15 Este 26 Este 0.4 1018.2 0.7 71
2017-10-20 13:00:00 21.3 10 Este 21 Este 0.1 1018.4 1.7 73
2017-10-20 12:00:00 20.9 15 Norte 22 Norte 0 1017.9 1.9 75
2017-10-20 11:00:00 19.3 14 Norte 22 Norte 0 1017.5 2.5 84
2017-10-20 10:00:00 17.7 16 Norte 24 Norte 0 1016.7 2.5 90
2017-10-20 09:00:00 16.6 16 Norte 22 Norte 0 1016 2.2 92
2017-10-20 08:00:00 16.6 11 Norte 15 Norte 0 1015 1.6 94
2017-10-20 07:00:00 16.6 8 Norte 13 Norte 1.7 1014.2 1.5 95
2017-10-20 06:00:00 16.5 4 Nordeste 11 Nordeste 5.8 1013.8 1.5 94
2017-10-20 05:00:00 16.6 3 Nordeste 22 Nordeste 3.3 1013.4 1 94
2017-10-20 04:00:00 17 13 Nordeste 18 Nordeste 0 1012.7 1.2 92
2017-10-20 03:00:00 16.7 11 Norte 24 Norte 0.5 1012.3 1.3 94
2017-10-20 02:00:00 17.2 18 Norte 26 Norte 0.4 1012.4 1.9 91
2017-10-20 01:00:00 17.8 17 Nordeste 22 Nordeste 0 1011.5 1.8 89
2017-10-20 00:00:00 17 11 Norte 28 Norte 0 1011 -- 92
2017-10-19 23:00:00 17.8 11 Norte 28 Norte 0 1010.5 -- 89
2017-10-19 22:00:00 18.3 12 Nordeste -- -- -- 1009.7 -- 86
2017-10-19 21:00:00 -- -- -- -- -- -- -- -- --
2017-10-19 20:00:00 -- -- -- -- -- -- -- -- --
2017-10-19 19:00:00 -- -- -- -- -- -- -- -- --
2017-10-19 18:00:00 16.7 19 Norte 41 Norte 3.8 1005.9 -2.1 95
2017-10-19 17:00:00 16.4 27 Norte 37 Norte 3.1 1006.2 -2.7 93
2017-10-19 16:00:00 15.9 17 Norte 26 Norte 7.8 1006.9 -2.8 93
2017-10-19 15:00:00 16.5 13 Norte 22 Norte 3.9 1008 -2.7 92
2017-10-19 14:00:00 16.6 17 Norte 26 Norte 0.1 1008.9 -2 90
2017-10-19 13:00:00 16.2 18 Norte 28 Norte 2.3 1009.7 -1 93
2017-10-19 12:00:00 16 18 Norte 28 Norte 0.8 1010.7 0.8 90
2017-10-19 11:00:00 15.8 15 Norte 30 Norte 1.3 1010.9 1.7 91
2017-10-19 10:00:00 16.2 22 Norte 41 Norte 0 1010.7 2.1 86
2017-10-19 09:00:00 16.2 13 Norte 37 Noroeste 0 1009.9 0.5 89
2017-10-19 08:00:00 17 20 Norte 41 Norte 0 1009.2 0 84
2017-10-19 07:00:00 20 17 Sur 33 Sur 0 1008.6 -1.3 78
2017-10-19 06:00:00 17.5 6 Norte 33 Nordeste 0.3 1009.4 -0.7 92
2017-10-19 05:00:00 17.1 10 Nordeste 21 Nordeste 2.4 1009.2 -1.4 94
2017-10-19 04:00:00 17 14 Norte 22 Norte 0.4 1009.9 -0.7 94
2017-10-19 03:00:00 16.6 13 Norte 24 Nordeste 5.1 1010.1 -1.2 95
2017-10-19 02:00:00 17 11 Norte 21 Nordeste 0.7 1010.6 0 93
2017-10-19 01:00:00 16.8 12 Norte 18 Este 1.3 1010.6 -0.9 93
2017-10-19 00:00:00 17.4 9 Este 24 Norte 14.5 1011.3 -0.7 91
2017-10-18 23:00:00 16.9 21 Norte 26 Norte 0 1010.6 -2.7 89
2017-10-18 22:00:00 16.9 12 Norte 17 Norte 0.5 1011.5 -0.3 91
2017-10-18 21:00:00 16.6 10 Nordeste 17 Norte 4.4 1012 1.5 93
2017-10-18 20:00:00 16.7 4 Oeste 58 Oeste 7.6 1013.3 2 92
2017-10-18 19:00:00 22.4 10 Sudeste 24 Este 0 1011.8 0.1 73
2017-10-18 18:00:00 21.9 16 Este 22 Sudeste 0.3 1010.5 -2.2 81
2017-10-18 17:00:00 22.9 13 Sudeste 18 Sudeste 0 1011.3 -2.4 72
2017-10-18 16:00:00 23.1 13 Este 22 Sudeste 0 1011.7 -2.5 71
2017-10-18 15:00:00 23.1 12 Sudeste 21 Este 0 1012.7 -2.3 71
2017-10-18 14:00:00 23.5 10 Sur 21 Sur 0 1013.7 -1.8 70
2017-10-18 13:00:00 23.4 13 Este 24 Este 0 1014.2 -1.6 69
2017-10-18 12:00:00 24.1 11 Sudeste 18 Sudeste 0 1015 -0.9 66
2017-10-18 11:00:00 22.7 7 Nordeste 15 Norte 0 1015.5 -0.3 68
2017-10-18 10:00:00 20.3 12 Norte 17 Norte 0 1015.8 -0.2 74
2017-10-18 09:00:00 18.7 12 Norte 17 Norte 0 1015.9 -0.3 80
2017-10-18 08:00:00 18.1 14 Norte 17 Norte 0 1015.8 -0.8 81
2017-10-18 07:00:00 18.3 13 Norte 17 Norte 0 1016 -1.4 80
2017-10-18 06:00:00 18.5 12 Norte 17 Norte 0 1016.2 -1.9 80
2017-10-18 05:00:00 18.7 13 Norte 17 Norte 0 1016.6 -2.1 79
2017-10-18 04:00:00 18.9 10 Norte 13 Norte 0 1017.4 -1.8 78
2017-10-18 03:00:00 18.8 13 Norte 22 Norte 0 1018.1 -1.5 79
2017-10-18 02:00:00 18.2 12 Norte 18 Norte 0 1018.7 -1 81
2017-10-18 01:00:00 18 10 Norte 15 Norte 0 1019.2 -0.4 82
2017-10-18 00:00:00 18.8 11 Norte 13 Norte 0 1019.6 0 79
2017-10-17 23:00:00 19.4 9 Norte 11 Norte 0 1019.7 -0.1 77
2017-10-17 22:00:00 19.9 6 Noroeste 9 Oeste 0 1019.6 0 76
2017-10-17 21:00:00 21.1 5 Oeste 9 Oeste 0 1019.6 -0.3 72
2017-10-17 20:00:00 21.3 8 Oeste 17 Sudoeste 0 1019.8 -0.2 70
2017-10-17 19:00:00 22.5 12 Sudoeste 22 Sudoeste 0 1019.6 -0.8 66
2017-10-17 18:00:00 23.8 15 Sudoeste 22 Sudoeste 0 1019.9 -1.2 62
2017-10-17 17:00:00 24.2 14 Sur 21 Sur 0 1020 -2.1 58
2017-10-17 16:00:00 24.6 12 Sur 21 Sur 0 1020.4 -2.4 58
2017-10-17 15:00:00 24.2 13 Sudeste 21 Sudeste 0 1021.1 -2 60
2017-10-17 14:00:00 24.2 11 Sur 21 Sur 0 1022.1 -1.4 62
2017-10-17 13:00:00 24.3 10 Sudeste 21 Sur 0 1022.8 -0.8 60
2017-10-17 12:00:00 23.8 6 Nordeste 30 Norte 0 1023.1 -0.3 59
2017-10-17 11:00:00 21.4 12 Norte 22 Norte 0 1023.5 0.6 65
2017-10-17 10:00:00 19.2 16 Norte 22 Norte 0 1023.6 0.5 72
2017-10-17 09:00:00 17 16 Norte 21 Norte 0 1023.4 0.2 81
2017-10-17 08:00:00 16.4 15 Norte 21 Norte 0 1022.9 -0.6 84
2017-10-17 07:00:00 16.3 13 Norte 18 Norte 0 1023.1 -0.9 84
2017-10-17 06:00:00 16.9 14 Norte 21 Norte 0 1023.2 -1.2 83
2017-10-17 05:00:00 17.2 11 Norte 17 Norte 0 1023.5 -1.4 83
2017-10-17 04:00:00 17.6 13 Norte 18 Norte 0 1024 -1.3 81
2017-10-17 03:00:00 18.4 13 Norte 18 Norte 0 1024.4 -1.1 79
2017-10-17 02:00:00 18.4 14 Norte 24 Este 0 1024.9 -0.7 79
2017-10-17 01:00:00 18.5 12 Norte 15 Norte 0 1025.3 0 79
2017-10-17 00:00:00 19 3 Norte 26 Norte 0 1025.5 0.2 78
2017-10-16 23:00:00 19.4 0 Calma 9 Norte 0 1025.6 0.3 75
2017-10-16 22:00:00 20.1 7 Norte 9 Norte 0 1025.3 0.2 72
2017-10-16 21:00:00 22 4 Sur 11 Oeste 0 1025.3 0.3 63
2017-10-16 20:00:00 22.2 8 Sur 15 Sudoeste 0 1025.3 0.2 63
2017-10-16 19:00:00 22.6 8 Sur 17 Sur 0 1025.1 -0.2 62
2017-10-16 18:00:00 23.7 11 Sur 18 Sur 0 1025 -0.7 60
2017-10-16 17:00:00 24.3 13 Sur 26 Sudoeste 0 1025.1 -1.3 60
2017-10-16 16:00:00 24.5 13 Sur 22 Sudoeste 0 1025.3 -1.6 57
2017-10-16 15:00:00 24.6 13 Sur 26 Sur 0 1025.7 -1.5 58
2017-10-16 14:00:00 24.9 15 Sur 24 Sur 0 1026.4 -0.7 54
2017-10-16 13:00:00 24.5 11 Sur 22 Sur 0 1026.9 0.1 58
2017-10-16 12:00:00 24.3 9 Sur 26 Norte 0 1027.2 1 63
2017-10-16 11:00:00 22.5 10 Norte 18 Norte 0 1027.1 1.4 69
2017-10-16 10:00:00 19.9 14 Norte 21 Norte 0 1026.8 1.3 78
2017-10-16 09:00:00 18.4 16 Norte 22 Norte 0 1026.2 0.7 84
2017-10-16 08:00:00 18 14 Norte 21 Norte 0 1025.7 0.2 86
2017-10-16 07:00:00 17.9 15 Norte 18 Norte 0 1025.5 -0.2 86
2017-10-16 06:00:00 17.9 14 Norte 21 Norte 0 1025.5 -0.6 87
2017-10-16 05:00:00 18.2 13 Norte 18 Norte 0 1025.5 -0.8 87
2017-10-16 04:00:00 18.4 13 Norte 18 Norte 0 1025.7 -1.1 86
2017-10-16 03:00:00 18.8 12 Norte 17 Norte 0 1026.1 -0.8 85
2017-10-16 02:00:00 19.3 12 Norte 15 Norte 0 1026.3 -0.7 84
2017-10-16 01:00:00 19.8 12 Norte 15 Norte 0 1026.8 0 82
2017-10-16 00:00:00 20.6 9 Norte 11 Norte 0 1026.9 0.4 80
2017-10-15 23:00:00 22.5 7 Sur 13 Sur 0 1027 0.5 72
2017-10-15 22:00:00 22.4 8 Sur 21 Sudoeste 0 1026.8 0.7 73
2017-10-15 21:00:00 22.4 6 Sur 17 Sudoeste 0 1026.5 0.7 73
2017-10-15 20:00:00 22.6 8 Sur 15 Sudoeste 0 1026.5 0.8 73
2017-10-15 19:00:00 23.2 10 Sur 21 Sudoeste 0 1026.1 0.1 73
2017-10-15 18:00:00 24.1 13 Sudoeste 21 Sudoeste 0 1025.8 -0.6 71
2017-10-15 17:00:00 24.6 15 Sudoeste 22 Sudoeste 0 1025.7 -1.3 68
2017-10-15 16:00:00 24.7 14 Sudoeste 21 Sudoeste 0 1026 -1.6 68
2017-10-15 15:00:00 24.7 15 Sur 26 Sur 0 1026.4 -1.4 69
2017-10-15 14:00:00 24.5 14 Sur 22 Sur 0 1027 -1.1 69
2017-10-15 13:00:00 24.2 12 Sur 17 Sudeste 0 1027.6 -0.3 69
2017-10-15 12:00:00 24.8 10 Sur 21 Norte 0 1027.8 0.3 64
2017-10-15 11:00:00 22.3 8 Norte 17 Norte 0 1028.1 0.9 70
2017-10-15 10:00:00 19.8 13 Norte 17 Norte 0 1027.9 0.9 79
2017-10-15 09:00:00 18 14 Norte 22 Norte 0 1027.5 0.7 83
2017-10-15 08:00:00 17.3 15 Norte 21 Norte 0 1027.2 0.5 87
2017-10-15 07:00:00 17.3 15 Norte 18 Norte 0 1027 0.4 88
2017-10-15 06:00:00 17.7 14 Norte 18 Norte 0 1026.8 -0.1 88
2017-10-15 05:00:00 17.9 13 Norte 17 Norte 0 1026.7 -0.3 89
2017-10-15 04:00:00 17.9 12 Norte 15 Norte 0 1026.6 -0.5 89
2017-10-15 03:00:00 18.3 13 Norte 15 Norte 0 1026.9 -0.1 87
2017-10-15 02:00:00 18.6 12 Norte 15 Norte 0 1027 0.1 87
2017-10-15 01:00:00 19.1 10 Norte 13 Norte 0 1027.1 0.5 85
2017-10-15 00:00:00 19.6 9 Norte 22 Norte 0 1027 0.5 83
2017-10-14 23:00:00 21.6 6 Norte 11 Sudeste 0 1026.9 0.6 77
2017-10-14 22:00:00 22.4 6 Sudeste 13 Sudeste 0 1026.6 0.6 76
2017-10-14 21:00:00 22.7 8 Sudeste 28 Sudeste 0 1026.5 0.8 75
2017-10-14 20:00:00 22.8 10 Sudeste 15 Sudeste 0 1026.3 0.5 73
2017-10-14 19:00:00 23.2 12 Sudeste 21 Este 0 1026 -0.1 70
2017-10-14 18:00:00 23.9 13 Sudeste 21 Este 0 1025.7 -0.6 67
2017-10-14 17:00:00 24.4 15 Sudeste 26 Sudeste 0 1025.8 -1 65
2017-10-14 16:00:00 24.5 16 Sudeste 26 Sudeste 0 1026.1 -1.1 65
2017-10-14 15:00:00 24.1 19 Este 28 Sudeste 0 1026.3 -1.1 73
2017-10-14 14:00:00 23.6 18 Este 32 Nordeste 0 1026.8 -0.4 77
2017-10-14 13:00:00 23.1 19 Este 33 Nordeste 0 1027.2 0.4 77
2017-10-14 12:00:00 23.2 16 Nordeste 22 Nordeste 0 1027.4 1.1 76
2017-10-14 11:00:00 21.9 11 Norte 17 Norte 0 1027.2 1.4 74
2017-10-14 10:00:00 20.4 14 Norte 18 Norte 0 1026.8 1.4 78
2017-10-14 09:00:00 19.5 15 Norte 22 Norte 0 1026.3 0.9 80
2017-10-14 08:00:00 18.9 14 Norte 22 Norte 0 1025.8 0.5 84
2017-10-14 07:00:00 18.9 14 Norte 18 Norte 0 1025.4 0 84
2017-10-14 06:00:00 18.9 13 Norte 21 Norte 0 1025.4 -0.4 85
2017-10-14 05:00:00 19.2 14 Norte 21 Norte 0 1025.3 -0.5 85
2017-10-14 04:00:00 19.2 13 Norte 18 Norte 0 1025.4 -0.4 85
2017-10-14 03:00:00 19 12 Norte 17 Norte 0 1025.8 0 85
2017-10-14 02:00:00 19.3 10 Norte 22 Nordeste 0 1025.8 0.1 85
2017-10-14 01:00:00 19.2 13 Norte 17 Norte 0 1025.8 0.2 85
2017-10-14 00:00:00 19.7 10 Norte 15 Norte 0 1025.8 0.4 84
2017-10-13 23:00:00 20.4 4 Norte 11 Norte 0 1025.7 0.5 82
2017-10-13 22:00:00 21.2 6 Norte 8 Norte 0 1025.6 0.8 80
2017-10-13 21:00:00 22.7 4 Sudoeste 11 Sur 0 1025.4 0.7 75
2017-10-13 20:00:00 23 5 Sur 11 Sur 0 1025.2 0.5 73
2017-10-13 19:00:00 23.7 9 Sur 15 Sudoeste 0 1024.8 0.1 70
2017-10-13 18:00:00 24.3 10 Sur 17 Sur 0 1024.7 -0.3 70
2017-10-13 17:00:00 24.7 12 Sur 21 Sudoeste 0 1024.7 -0.7 68
2017-10-13 16:00:00 25.1 14 Sur 21 Sur 0 1024.7 -1.3 69
2017-10-13 15:00:00 25.1 14 Sur 22 Sudoeste 0 1025 -1.1 66
2017-10-13 14:00:00 25 14 Sudoeste 22 Sudoeste 0 1025.4 -0.5 64
2017-10-13 13:00:00 24.4 12 Sur 18 Sur 0 1026 0.4 68
2017-10-13 12:00:00 24.5 9 Sur 15 Oeste 0 1026.1 1 66
2017-10-13 11:00:00 22.1 11 Norte 18 Norte 0 1025.9 1.1 73
2017-10-13 10:00:00 19.9 15 Norte 21 Norte 0 1025.6 0.8 82
2017-10-13 09:00:00 18.7 12 Norte 21 Norte 0 1025.1 0.3 87
2017-10-13 08:00:00 18.3 11 Norte 18 Norte 0 1024.8 -0.1 89
2017-10-13 07:00:00 18.5 14 Norte 21 Norte 0 1024.8 -0.3 89
2017-10-13 06:00:00 18.7 13 Norte 21 Norte 0 1024.8 -0.5 88
2017-10-13 05:00:00 18.9 14 Norte 18 Norte 0 1024.9 -0.5 90
2017-10-13 04:00:00 19 9 Norte 13 Norte 0 1025.1 -0.5 90
2017-10-13 03:00:00 19.5 7 Norte 9 Norte 0 1025.3 -0.4 88
2017-10-13 02:00:00 19.5 0 Calma 8 Norte 0 1025.4 -0.5 86
2017-10-13 01:00:00 20.4 5 Norte -- -- 0 1025.6 -0.1 84
2017-10-13 00:00:00 21.7 13 Oeste 17 Sudoeste 0 1025.7 0.4 84
2017-10-12 23:00:00 22.2 11 Oeste 21 Oeste 0 1025.9 0.8 82
2017-10-12 22:00:00 22.4 14 Sudoeste 26 Sudoeste 0 1025.7 0.9 82
2017-10-12 21:00:00 22.5 16 Sudoeste 24 Oeste 0 1025.3 0.5 82
2017-10-12 20:00:00 22.9 19 Sudoeste 28 Sudoeste 0 1025.1 0.4 80
2017-10-12 19:00:00 23.5 18 Sudoeste 30 Oeste 0 1024.8 -0.2 78
2017-10-12 18:00:00 24.3 23 Sudoeste 32 Sudoeste 0 1024.8 -0.4 70
2017-10-12 17:00:00 24.9 23 Sudoeste 30 Sudoeste 0 1024.7 -1.1 66
2017-10-12 16:00:00 24.9 20 Sudoeste 28 Sudoeste 0 1025 -1.5 68
2017-10-12 15:00:00 25.3 14 Sudoeste 26 Sudoeste 0 1025.2 -1.3 65
2017-10-12 14:00:00 24.8 10 Sur 18 Sudeste 0 1025.8 -0.5 68
2017-10-12 13:00:00 25.4 9 Sur 18 Sudeste 0 1026.5 0.6 64
2017-10-12 12:00:00 24 3 Nordeste 18 Norte 0 1026.5 1.2 67
2017-10-12 11:00:00 21.6 14 Norte 21 Norte 0 1026.3 1.5 72
2017-10-12 10:00:00 19.5 14 Norte 22 Norte 0 1025.9 1.6 80
2017-10-12 09:00:00 18 14 Norte 21 Norte 0 1025.3 1.4 84
2017-10-12 08:00:00 18.3 15 Norte 22 Norte 0 1024.8 1.1 84
2017-10-12 07:00:00 18.3 16 Norte 22 Norte 0 1024.3 0.7 84
2017-10-12 06:00:00 18.5 14 Norte 18 Norte 0 1023.9 0.2 84
2017-10-12 05:00:00 18.3 15 Norte 21 Norte 0 1023.7 -0.1 86
2017-10-12 04:00:00 18.4 13 Norte 17 Norte 0 1023.6 -0.1 89
2017-10-12 03:00:00 18.6 4 Norte 8 Norte 0 1023.7 0.1 87
2017-10-12 02:00:00 18.9 8 Norte 21 Nordeste 0 1023.8 0.5 86
2017-10-12 01:00:00 19.8 5 Norte 8 Norte 0 1023.7 0.7 83
2017-10-12 00:00:00 20.5 3 Noroeste 11 Oeste 0 1023.6 1.2 82
2017-10-11 23:00:00 22 11 Oeste 18 Sudoeste 0 1023.3 1.5 79
2017-10-11 22:00:00 22.1 13 Oeste 22 Oeste 0 1023 1.6 80
2017-10-11 21:00:00 22.4 15 Oeste 26 Oeste 0 1022.4 1.3 79
2017-10-11 20:00:00 22.7 18 Sudoeste 26 Sudoeste 0 1021.8 0.8 79
2017-10-11 19:00:00 23.1 21 Sudoeste 33 Sudoeste 0 1021.4 0.3 75
2017-10-11 18:00:00 24.1 24 Sudoeste 37 Sudoeste 0 1021.1 -0.2 71
2017-10-11 17:00:00 24.4 30 Sudoeste 39 Sudoeste 0 1021 -0.7 67
2017-10-11 16:00:00 24.8 28 Sudoeste 37 Sudoeste 0 1021.1 -1.2 65
2017-10-11 15:00:00 24.7 28 Sudoeste 35 Sudoeste 0 1021.3 -1.1 64
2017-10-11 14:00:00 24.5 26 Sudoeste 37 Sudoeste 0 1021.7 -0.7 66
2017-10-11 13:00:00 24.2 19 Sudoeste 26 Sudoeste 0 1022.3 0.1 69
2017-10-11 12:00:00 23.7 16 Sudoeste 24 Sudoeste 0 1022.4 0.7 72
2017-10-11 11:00:00 22.7 4 Norte 18 Norte 0 1022.4 1.2 69
2017-10-11 10:00:00 19.7 16 Norte 21 Norte 0 1022.2 1.2 74
2017-10-11 09:00:00 17.8 17 Norte 22 Norte 0 1021.7 0.6 82
2017-10-11 08:00:00 17.6 14 Norte 21 Norte 0 1021.2 0.2 84
2017-10-11 07:00:00 17.6 15 Norte 21 Norte 0 1021 -0.2 85
2017-10-11 06:00:00 18 14 Norte 18 Norte 0 1021.1 -0.3 84
2017-10-11 05:00:00 18.1 14 Norte 18 Norte 0 1021 -0.3 85
2017-10-11 04:00:00 18.3 12 Norte 17 Norte 0 1021.2 -0.2 87
2017-10-11 03:00:00 18.6 12 Norte 15 Norte 0 1021.4 -0.1 86
2017-10-11 02:00:00 18.8 11 Norte 15 Norte 0 1021.3 0.1 85
2017-10-11 01:00:00 18.9 9 Norte 13 Norte 0 1021.4 0.3 84
2017-10-11 00:00:00 19.5 10 Norte 13 Norte 0 1021.5 0.7 82
2017-10-10 23:00:00 20 5 Norte 8 Norte 0 1021.2 0.8 81
2017-10-10 22:00:00 21.5 7 Noroeste -- -- 0 1021.1 1.1 77
2017-10-10 21:00:00 22.4 6 Sudoeste 13 Sur 0 1020.8 1.2 74
2017-10-10 20:00:00 22.7 8 Sur 13 Sur 0 1020.4 0.9 72
2017-10-10 19:00:00 23.1 10 Sudoeste 18 Sur 0 1020 0.5 69
2017-10-10 18:00:00 24 12 Sur 22 Sudoeste 0 1019.6 -0.2 65
2017-10-10 17:00:00 24.3 15 Sudoeste 26 Sudoeste 0 1019.5 -0.9 63
2017-10-10 16:00:00 24.8 16 Sudoeste 28 Sur 0 1019.5 -1.3 62
2017-10-10 15:00:00 24.4 13 Sur 26 Sudoeste 0 1019.8 -1 62
2017-10-10 14:00:00 24.3 11 Sur 18 Sur 0 1020.4 -0.3 62
2017-10-10 13:00:00 24.2 11 Sudeste 18 Sudeste 0 1020.8 0.2 64
2017-10-10 12:00:00 24.1 10 Sudeste 15 Sudeste 0 1020.8 0.8 65
2017-10-10 11:00:00 21.9 10 Norte 24 Norte 0 1020.7 1.5 69
2017-10-10 10:00:00 19.3 15 Norte 21 Norte 0 1020.6 1.7 79
2017-10-10 09:00:00 17.8 10 Norte 18 Norte 0 1020 1.3 84
2017-10-10 08:00:00 17.1 14 Norte 22 Norte 0 1019.2 0.5 87
2017-10-10 07:00:00 17.5 14 Norte 21 Norte 0 1018.9 0 87
2017-10-10 06:00:00 17.8 13 Norte 18 Norte 0 1018.7 -0.5 88
2017-10-10 05:00:00 17.9 15 Norte 21 Norte 0 1018.7 -0.5 88
2017-10-10 04:00:00 18.2 14 Norte 18 Norte 0 1018.9 -0.6 86
2017-10-10 03:00:00 18.3 13 Norte 17 Norte 0 1019.2 -0.4 87
2017-10-10 02:00:00 19.2 12 Norte 28 Norte 0 1019.2 -0.5 84
2017-10-10 01:00:00 20 10 Norte 13 Norte 0 1019.5 0 82
2017-10-10 00:00:00 21.8 9 Sur 17 Sudoeste 0 1019.6 0.2 78
2017-10-09 23:00:00 21.8 9 Sur 21 Sur 0 1019.7 0.7 77
2017-10-09 22:00:00 21.9 10 Sur 21 Sur 0 1019.5 0.8 76
2017-10-09 21:00:00 21.9 10 Sur 21 Sur 0 1019.4 0.8 75
2017-10-09 20:00:00 22.3 13 Sur 24 Sur 0 1019 0.3 73
2017-10-09 19:00:00 22.5 15 Sur 26 Sur 0 1018.7 -0.3 72
2017-10-09 18:00:00 23 17 Sur 32 Sur 0 1018.6 -0.6 68
2017-10-09 17:00:00 23.6 19 Sur 32 Sur 0 1018.7 -0.9 65
2017-10-09 16:00:00 23.8 19 Sur 30 Sudoeste 0 1019 -1.1 64
2017-10-09 15:00:00 24.3 18 Sur 28 Sur 0 1019.2 -1.1 63
2017-10-09 14:00:00 24 15 Sur 24 Sudeste 0 1019.6 -0.5 64
2017-10-09 13:00:00 23.5 18 Este 24 Este 0 1020.1 0.3 64
2017-10-09 12:00:00 22.9 10 Este 17 Norte 0 1020.3 0.9 62
2017-10-09 11:00:00 20.4 14 Norte 24 Norte 0 1020.1 1.1 61
2017-10-09 10:00:00 17.6 17 Norte 28 Norte 0 1019.8 1 66
2017-10-09 09:00:00 16 18 Norte 26 Norte 0 1019.4 0.8 73
2017-10-09 08:00:00 15.3 18 Norte 26 Norte 0 1019 0.5 75
2017-10-09 07:00:00 15.7 18 Norte 24 Norte 0 1018.8 0.1 74
2017-10-09 06:00:00 16.1 17 Norte 24 Norte 0 1018.6 -0.5 75
2017-10-09 05:00:00 16.3 16 Norte 22 Norte 0 1018.5 -0.5 81
2017-10-09 04:00:00 16.9 15 Norte 21 Norte 0 1018.7 -0.4 79
2017-10-09 03:00:00 17.2 14 Norte 21 Norte 0 1019.1 -0.3 79
2017-10-09 02:00:00 17.5 14 Norte 18 Norte 0 1019 -0.2 77
2017-10-09 01:00:00 17.4 5 Norte 9 Norte 0 1019.1 0.2 79
2017-10-09 00:00:00 18.4 9 Norte 13 Norte 0 1019.4 0.7 75
2017-10-08 23:00:00 19.5 9 Norte 11 Norte 0 1019.2 0.7 71
2017-10-08 22:00:00 19.7 4 Noroeste 13 Oeste 0 1018.9 0.9 77
2017-10-08 21:00:00 20.7 11 Oeste 18 Sudoeste 0 1018.7 1.1 79
2017-10-08 20:00:00 21.7 13 Sudoeste 21 Sudoeste 0 1018.5 0.7 68
2017-10-08 19:00:00 22.7 15 Oeste 26 Sudoeste 0 1018 -0.2 58
2017-10-08 18:00:00 23.6 21 Sudoeste 28 Sudoeste 0 1017.6 -1 50
2017-10-08 17:00:00 24 22 Sudoeste 28 Sudoeste 0 1017.8 -1.4 52
2017-10-08 16:00:00 23.9 22 Sudoeste 30 Sudoeste 0 1018.2 -1.6 53
2017-10-08 15:00:00 23.5 20 Sudoeste 30 Sudoeste 0 1018.6 -1.5 63
2017-10-08 14:00:00 23.3 18 Sudoeste 26 Sudoeste 0 1019.2 -1.1 66
2017-10-08 13:00:00 22.8 18 Sudoeste 26 Sudoeste 0 1019.8 -0.4 64
2017-10-08 12:00:00 22 10 Norte 24 Norte 0 1020.1 0.3 58
2017-10-08 11:00:00 19.4 17 Norte 26 Norte 0 1020.3 0.8 61
2017-10-08 10:00:00 16.9 20 Norte 28 Norte 0 1020.2 0.7 69
2017-10-08 09:00:00 15 21 Norte 26 Norte 0 1019.8 -- 75
2017-10-08 08:00:00 14.7 18 Norte 24 Norte 0 1019.5 -- 77
2017-10-08 07:00:00 14.8 17 Norte -- -- -- 1019.5 -- 77
2017-10-08 06:00:00 -- -- -- -- -- -- -- -- --
2017-10-08 05:00:00 -- -- -- -- -- -- -- -- --
2017-10-08 04:00:00 -- -- -- -- -- -- -- -- --
2017-10-08 03:00:00 -- -- -- -- -- -- -- -- --
2017-10-08 02:00:00 -- -- -- -- -- -- -- -- --
2017-10-08 01:00:00 16.8 8 Norte 11 Norte 0 1021.4 -0.3 73
2017-10-08 00:00:00 16.9 8 Norte 13 Norte 0 1021.8 -0.2 73
2017-10-07 23:00:00 17.5 11 Norte 15 Norte 0 1021.7 -0.1 70
2017-10-07 22:00:00 18.1 6 Noroeste 9 Oeste 0 1021.7 -0.1 67
2017-10-07 21:00:00 19.6 5 Sudoeste 11 Sudoeste 0 1022 0.3 63
2017-10-07 20:00:00 20.2 6 Sudoeste 17 Sudoeste 0 1021.8 0.1 59
2017-10-07 19:00:00 21 9 Sur 18 Sur 0 1021.8 -0.3 54
2017-10-07 18:00:00 21.7 11 Sur 21 Sudeste 0 1021.7 -0.5 50
2017-10-07 17:00:00 22 14 Sudeste 21 Sur 0 1021.7 -1.1 48
2017-10-07 16:00:00 22.3 14 Sur 26 Sudeste 0 1022.1 -1.1 44
2017-10-07 15:00:00 22.3 15 Sudeste 26 Este 0 1022.2 -1 39
2017-10-07 14:00:00 21.4 16 Sudeste 26 Este 0 1022.8 -0.4 41
2017-10-07 13:00:00 21.4 18 Este 22 Este 0 1023.2 0.2 45
2017-10-07 12:00:00 20.6 10 Norte 30 Norte 0 1023.2 0.8 46
2017-10-07 11:00:00 20.7 18 Nordeste 26 Nordeste 0 1023.2 1.4 45
2017-10-07 10:00:00 19.2 13 Norte 24 Norte 0 1023 1.9 53
2017-10-07 09:00:00 18.3 15 Norte 22 Norte 0 1022.4 2 58
2017-10-07 08:00:00 18.4 13 Norte 28 Nordeste 0 1021.8 1.9 58
2017-10-07 07:00:00 19.2 18 Norte 26 Norte 0 1021.1 1.7 58
2017-10-07 06:00:00 19.5 13 Norte 21 Norte 0 1020.4 1.1 66
2017-10-07 05:00:00 20.5 11 Norte 18 Este 0 1019.9 0.9 77
2017-10-07 04:00:00 20.9 12 Este 18 Este 0 1019.4 0.4 72
2017-10-07 03:00:00 21.5 17 Este 28 Este 0 1019.3 0.7 67
2017-10-07 02:00:00 22.8 13 Sur 21 Sur 0 1019 0.9 77
2017-10-07 01:00:00 22.7 9 Sur 18 Sur 0 1019 1.3 77
2017-10-07 00:00:00 22.8 12 Sur 24 Sur 0 1018.6 1.3 77
2017-10-06 23:00:00 22.8 13 Sur 21 Sur 0 1018.1 1.4 78
2017-10-06 22:00:00 23 11 Sudeste 18 Sudeste 0 1017.7 1.3 77
2017-10-06 21:00:00 22.9 12 Sudeste 17 Sudeste 0 1017.3 1.1 78
2017-10-06 20:00:00 23.1 10 Sudeste 15 Sudeste 0 1016.7 0.5 74
2017-10-06 19:00:00 23.9 6 Sudoeste 17 Sudoeste 0 1016.4 0 72
2017-10-06 18:00:00 24.4 14 Sur 21 Sur 0 1016.2 -0.5 71
2017-10-06 17:00:00 24.8 11 Sudoeste 30 Sudeste 0 1016.2 -0.7 71
2017-10-06 16:00:00 24.7 21 Sudeste 35 Sudeste 0 1016.4 -1.2 73
2017-10-06 15:00:00 24.7 22 Sudeste 33 Sudeste 0 1016.7 -1.3 72
2017-10-06 14:00:00 25.1 21 Este 30 Este 0 1016.9 -1 68
2017-10-06 13:00:00 25.9 9 Este 18 Norte 0 1017.6 0 55
2017-10-06 12:00:00 24.3 14 Norte 32 Norte 0 1018 0.9 57
2017-10-06 11:00:00 22.5 17 Norte 28 Norte 0 1017.9 1.2 61
2017-10-06 10:00:00 21.3 17 Norte 28 Norte 0 1017.6 0.9 66
2017-10-06 09:00:00 19.7 19 Norte 28 Norte 0 1017.1 0.4 76
2017-10-06 08:00:00 19.4 17 Norte 26 Norte 0 1016.7 0 82
2017-10-06 07:00:00 19.7 13 Norte 22 Norte 0 1016.7 -0.4 86
2017-10-06 06:00:00 19.8 14 Norte 22 Norte 0 1016.7 -0.8 89
2017-10-06 05:00:00 19.8 15 Norte 21 Norte 0 1016.7 -1.1 89
2017-10-06 04:00:00 20.1 12 Norte 17 Norte 0 1017.1 -0.9 89
2017-10-06 03:00:00 20.1 9 Norte 13 Norte 0 1017.5 -0.7 88
2017-10-06 02:00:00 20.9 6 Norte 9 Norte 0 1017.8 -0.6 85
2017-10-06 01:00:00 21.2 3 Norte 11 Norte 0 1018 -0.1 84
2017-10-06 00:00:00 21.7 0 Calma 9 Norte 0 1018.2 0.1 81
2017-10-05 23:00:00 21.8 6 Norte 15 Oeste 0 1018.4 0.6 81
2017-10-05 22:00:00 22.2 15 Oeste 26 Oeste 0 1018.1 0.5 84
2017-10-05 21:00:00 22.8 21 Oeste 32 Oeste 0 1018.1 0.4 81
2017-10-05 20:00:00 23 21 Oeste 32 Oeste 0 1017.8 -0.5 83
2017-10-05 19:00:00 23.9 21 Sudoeste 35 Sudoeste 0 1017.6 -1.2 79
2017-10-05 18:00:00 24.6 25 Sudoeste 39 Oeste 0 1017.7 -1.6 75
2017-10-05 17:00:00 25.1 29 Sudoeste 41 Sudoeste 0 1018.3 -1.9 72
2017-10-05 16:00:00 25.1 28 Sudoeste 41 Sudoeste 0 1018.8 -2.2 73
2017-10-05 15:00:00 25 28 Sudoeste 41 Oeste 0 1019.3 -1.9 73
2017-10-05 14:00:00 25 33 Sudoeste 41 Sudoeste 0 1020.2 -1.2 70
2017-10-05 13:00:00 24.9 32 Sudoeste 41 Sudoeste 0 1021 -0.7 72
2017-10-05 12:00:00 25 28 Sudoeste 35 Sudoeste 0 1021.2 -0.4 67
2017-10-05 11:00:00 24.7 19 Oeste 26 Oeste 0 1021.4 -0.1 69
2017-10-05 10:00:00 21.2 8 Norte 13 Norte 0 1021.7 0.2 80
2017-10-05 09:00:00 19.3 10 Norte 13 Norte 0 1021.6 0.2 86
2017-10-05 08:00:00 18.8 6 Norte 15 Norte 0 1021.5 0 88
2017-10-05 07:00:00 19.1 8 Norte 15 Norte 0 1021.5 -0.6 88
2017-10-05 06:00:00 19.3 10 Norte 17 Norte 0 1021.4 -1.3 90
2017-10-05 05:00:00 19 7 Norte 13 Norte 0 1021.5 -1.9 90
2017-10-05 04:00:00 19 4 Nordeste 8 Nordeste 0 1022.1 -1.6 89
2017-10-05 03:00:00 19.5 4 Norte 11 Norte 0 1022.7 -1.3 88
2017-10-05 02:00:00 20.1 10 Norte 17 Nordeste 0 1023.4 -0.8 87
2017-10-05 01:00:00 20.3 9 Norte 13 Norte 0 1023.7 -0.3 86
2017-10-05 00:00:00 20.5 3 Norte 8 Norte 0 1024 0.6 86
2017-10-04 23:00:00 21.3 5 Noroeste 9 Noroeste 0 1024.2 1 85
2017-10-04 22:00:00 22.6 4 Oeste 9 Sudoeste 0 1024 1.1 80
2017-10-04 21:00:00 22.8 8 Sudoeste 17 Sudoeste 0 1023.4 0.6 79
2017-10-04 20:00:00 23.1 8 Sudoeste 13 Sudoeste 0 1023.2 0.2 78
2017-10-04 19:00:00 24.1 11 Sudoeste 18 Sudoeste 0 1022.9 -0.7 74
2017-10-04 18:00:00 23.8 13 Sur 26 Sur 0 1022.8 -1 77
2017-10-04 17:00:00 23.9 16 Sudeste 26 Este 0 1023 -- 74
2017-10-04 16:00:00 23.4 18 Sudeste 30 Sudeste 0 1023.6 -0.9 73
2017-10-04 15:00:00 24.1 14 Sudeste 26 Sudeste 0 1023.8 -0.6 73
2017-10-04 14:00:00 2.7 17 Sudeste 26 Sur 0 -- -- 71
2017-10-04 13:00:00 24.3 12 Sur 21 Sudeste 0 1024.5 0.4 74
2017-10-04 12:00:00 25.1 11 Sur 17 Sudeste 0 1024.4 0.8 70
2017-10-04 11:00:00 24 7 Nordeste 13 Este 0 1024.4 1.2 73
2017-10-04 10:00:00 21.8 9 Norte 21 Nordeste 0 1024.1 1.4 76
2017-10-04 09:00:00 19.9 12 Norte 21 Norte 0 1023.6 1.1 82
2017-10-04 08:00:00 19.4 15 Norte 21 Norte 0 1023.2 1 85
2017-10-04 07:00:00 19.8 5 Norte 17 Norte 0 1022.7 0.4 85
2017-10-04 06:00:00 19.9 13 Norte 17 Norte 0 1022.5 -0.1 84
2017-10-04 05:00:00 20.2 11 Norte 13 Norte 0 1022.2 0.4 84
2017-10-04 04:00:00 20.1 5 Nordeste 18 Norte 0 1022.3 -0.4 85
2017-10-04 03:00:00 19.6 11 Norte 15 Norte 0 1022.6 -0.1 87
2017-10-04 02:00:00 20.3 0 Calma 8 Norte 0 1021.8 -0.3 84
2017-10-04 01:00:00 20.6 6 Norte 11 Norte 0 1022.7 1.1 83
2017-10-04 00:00:00 21.1 6 Norte 9 Norte 0 1022.7 1.6 82
2017-10-03 23:00:00 21.3 5 Noroeste 13 Oeste 0 1022.1 1.5 83
2017-10-03 22:00:00 22.2 8 Oeste 13 Sudoeste 0 1021.6 1.5 83
2017-10-03 21:00:00 22.8 8 Sudoeste 13 Sudoeste 0 1021.1 1.5 79
2017-10-03 20:00:00 23 10 Sudoeste 18 Sudoeste 0 1020.6 0.9 80
2017-10-03 19:00:00 23.8 14 Sudoeste 30 Oeste 0 1020.1 0.3 76
2017-10-03 18:00:00 24.6 16 Sudoeste 24 Sudoeste 0 1019.6 -0.4 73
2017-10-03 17:00:00 24.8 15 Sudoeste 22 Sudoeste 0 1019.7 -1 74
2017-10-03 16:00:00 25.4 14 Sudoeste 24 Sudoeste 0 1019.8 -1.4 72
2017-10-03 15:00:00 24.6 19 Sudoeste 24 Sudoeste 0 1020 -1.3 74
2017-10-03 14:00:00 24.7 16 Sudoeste 22 Sudoeste 0 1020.7 -0.6 72
2017-10-03 13:00:00 24.3 16 Sudoeste 21 Sudoeste 0 1021.2 0.2 72
2017-10-03 12:00:00 24.4 4 Norte 15 Norte 0 1021.3 0.6 68
2017-10-03 11:00:00 23.2 7 Norte 11 Norte 0 1021.3 0.4 71
2017-10-03 10:00:00 21.1 5 Norte 9 Norte 0 1021 0.2 79
2017-10-03 09:00:00 20.4 4 Norte 13 Norte 0 1020.7 -0.1 82
2017-10-03 08:00:00 19.8 11 Norte 18 Norte 0 1020.9 0 83
2017-10-03 07:00:00 19.6 14 Norte 17 Norte 0 1020.8 -0.6 82
2017-10-03 06:00:00 19.5 8 Norte 15 Norte 0 1020.8 -1 83
2017-10-03 05:00:00 20.1 10 Norte 15 Norte 0 1020.9 -1.1 81
2017-10-03 04:00:00 20.6 10 Norte 15 Norte 0 1021.4 -1.2 81
2017-10-03 03:00:00 20.9 9 Norte 11 Norte 0 1021.8 -1.1 81
2017-10-03 02:00:00 21.6 7 Norte 15 Norte 0 1022 -0.8 78
2017-10-03 01:00:00 22.2 6 Oeste 9 Oeste 0 1022.6 -0.4 76
2017-10-03 00:00:00 22.4 7 Oeste 17 Sudoeste 0 1022.9 0.1 82
2017-10-02 23:00:00 22.5 10 Sur 15 Sur 0 1022.8 0.3 79
2017-10-02 22:00:00 22.4 8 Sur 15 Sudoeste 0 1023 0.7 79
2017-10-02 21:00:00 22.6 9 Sur 15 Sudoeste 0 1022.8 0.6 78
2017-10-02 20:00:00 22.7 9 Sur 15 Sur 0 1022.5 0.2 79
2017-10-02 19:00:00 23 9 Sur 18 Sur 0 1022.3 0 75
2017-10-02 18:00:00 23.8 10 Sur 17 Sudeste 0 1022.2 -0.5 74
2017-10-02 17:00:00 23.8 12 Sudeste 21 Sudeste 0 1022.3 -0.7 73
2017-10-02 16:00:00 24.2 12 Sur 21 Sur 0 1022.3 -1 64
2017-10-02 15:00:00 24.6 11 Sur 17 Sudeste 0 1022.7 -0.6 63
2017-10-02 14:00:00 24.6 12 Sudeste 18 Sur 0 1023 -0.1 65
2017-10-02 13:00:00 24.6 10 Sur 17 Sudeste 0 1023.3 0.9 64
2017-10-02 12:00:00 22.9 5 Nordeste 21 Norte 0 1023.3 1.3 70
2017-10-02 11:00:00 21.1 7 Norte 15 Norte 0 1023.1 1.4 76
2017-10-02 10:00:00 20.1 11 Norte 17 Norte 0 1022.4 0.8 79
2017-10-02 09:00:00 19.4 12 Norte 17 Norte 0 1022 0.5 82
2017-10-02 08:00:00 19.1 14 Norte 18 Norte 0 1021.7 0.2 83
2017-10-02 07:00:00 19.1 12 Norte 18 Norte 0 1021.6 0.2 84
2017-10-02 06:00:00 19.4 14 Norte 21 Norte 0 1021.5 -0.1 84
2017-10-02 05:00:00 19.4 12 Norte 30 Norte 0 1021.5 -0.2 85
2017-10-02 04:00:00 19.4 10 Norte 18 Nordeste 0 1021.4 -0.6 85
2017-10-02 03:00:00 19.2 9 Norte 13 Norte 0 1021.6 -0.4 85
2017-10-02 02:00:00 19.2 10 Norte 13 Norte 0 1021.7 -0.2 86
2017-10-02 01:00:00 19.3 8 Norte 11 Norte 0 1022 0.3 86
2017-10-02 00:00:00 19.5 4 Noroeste 42 Nordeste 0 1022 0.9 86
2017-10-01 23:00:00 19.6 4 Norte 5 Norte 0 1021.9 1.1 86
2017-10-01 22:00:00 19.6 3 Norte 8 Noroeste 0 1021.7 1 85
2017-10-01 21:00:00 20.3 3 Norte 11 Sudoeste 0 1021.1 0.7 82
2017-10-01 20:00:00 20.7 5 Sudoeste 11 Sudoeste 0 1020.8 0.1 77
2017-10-01 19:00:00 21.3 7 Sudoeste 13 Sudoeste 0 1020.7 -0.1 73
2017-10-01 18:00:00 21.4 6 Sudoeste 15 Sur 0 1020.4 -0.5 71
2017-10-01 17:00:00 21.4 9 Sur 18 Sudeste 0 1020.7 -0.5 69
2017-10-01 16:00:00 21.3 10 Sudeste 21 Sudeste 0 1020.8 -0.2 70
2017-10-01 15:00:00 21.2 13 Sudeste 22 Sudeste 0 1020.9 -0.5 71
2017-10-01 14:00:00 20.9 12 Sudeste 26 Sudeste 0 1021.2 0.3 74
2017-10-01 13:00:00 21 15 Sudeste 28 Sudeste 0 1021 0.4 78
2017-10-01 12:00:00 20.4 17 Sudeste 26 Sur 0 1021.4 1.1 79
2017-10-01 11:00:00 20 12 Sudeste 24 Este 0 1020.9 1.3 81
2017-10-01 10:00:00 19.8 17 Sudeste 24 Sudeste 0.6 1020.6 1.4 85
2017-10-01 09:00:00 19.5 13 Norte 26 Sudeste 0 1020.3 1.2 86
2017-10-01 08:00:00 19.2 8 Norte 17 Nordeste 0 1019.6 0.6 88
2017-10-01 07:00:00 18.4 8 Nordeste 18 Nordeste 0.2 1019.2 0 90
2017-10-01 06:00:00 19.3 8 Norte 21 Norte 0 1019.1 -0.1 85
2017-10-01 05:00:00 19.1 12 Norte 17 Norte 0 1019 -0.8 85
2017-10-01 04:00:00 19.2 12 Norte 15 Norte 0 1019.2 -0.6 86
2017-10-01 03:00:00 19.3 10 Norte 17 Norte 0 1019.2 -1.2 86
2017-10-01 02:00:00 19.3 11 Norte 17 Norte 0.1 1019.8 0.2 87
2017-10-01 01:00:00 19 11 Norte 17 Norte 3.2 1019.8 0.3 92
2017-10-01 00:00:00 18.5 14 Norte 28 Este 11.4 1020.4 1.5 92
2017-09-30 23:00:00 21.1 16 Este 22 Nordeste 0 1019.6 1.2 85
2017-09-30 22:00:00 20.4 13 Norte 17 Norte 0 1019.5 1.6 78
2017-09-30 21:00:00 20.5 7 Noroeste 17 Norte 0 1018.9 1 79
2017-09-30 20:00:00 20.9 8 Norte 26 Norte 0 1018.4 0.6 79
2017-09-30 19:00:00 21.9 8 Noroeste 15 Oeste 0.5 1017.9 -0.1 78
2017-09-30 18:00:00 22.4 15 Oeste 26 Oeste 0.2 1017.9 -0.2 80
2017-09-30 17:00:00 23 20 Sudoeste 33 Oeste 0 1017.8 -0.6 75
2017-09-30 16:00:00 23.4 24 Sudoeste 35 Oeste 0 1018 -0.8 72
2017-09-30 15:00:00 24.1 28 Sudoeste 37 Sudoeste 0 1018.1 -1 68
2017-09-30 14:00:00 24 27 Sudoeste 39 Sudoeste 0 1018.4 -1 70
2017-09-30 13:00:00 23.8 26 Sudoeste 33 Sudoeste 0 1018.8 -0.7 70
2017-09-30 12:00:00 23.7 24 Sudoeste 32 Sudoeste 0 1019.1 -0.6 70
2017-09-30 11:00:00 23.1 20 Sudoeste 26 Oeste 0 1019.4 -0.1 71
2017-09-30 10:00:00 20.5 5 Norte 17 Norte 0 1019.5 -0.1 74
2017-09-30 09:00:00 18.5 13 Norte 22 Norte 0 1019.7 0.1 80
2017-09-30 08:00:00 17.4 15 Norte 22 Norte 0 1019.5 0 84
2017-09-30 07:00:00 17.8 16 Norte 22 Norte 0 1019.6 -0.2 83
2017-09-30 06:00:00 18.1 14 Norte 18 Norte 0 1019.6 -0.8 85
2017-09-30 05:00:00 18.1 6 Norte 11 Norte 0 1019.5 -1 86
2017-09-30 04:00:00 18.6 3 Norte 15 Norte 0 1019.8 -1 84
2017-09-30 03:00:00 19 9 Norte 18 Norte 0 1020.4 -0.6 84
2017-09-30 02:00:00 19 7 Norte 21 Nordeste 0 1020.5 -1 84
2017-09-30 01:00:00 19.4 4 Norte 9 Noroeste 0 1020.8 -0.4 82
2017-09-30 00:00:00 20.3 3 Oeste 9 Norte 0 1021 -0.1 79
2017-09-29 23:00:00 20.7 5 Noroeste 11 Oeste 0 1021.5 0.8 78
2017-09-29 22:00:00 21.3 8 Oeste 15 Sudoeste 0 1021.2 0.8 77
2017-09-29 21:00:00 22 10 Sudoeste 15 Oeste 0 1021.1 0.8 74
2017-09-29 20:00:00 22.4 13 Sudoeste 21 Sudoeste 0 1020.7 0.2 72
2017-09-29 19:00:00 23.7 14 Sudoeste 26 Sudoeste 0 1020.4 -0.6 67
2017-09-29 18:00:00 24.4 19 Sudoeste 28 Sudoeste 0 1020.3 -1.2 65
2017-09-29 17:00:00 24.8 19 Sudoeste 26 Sudoeste 0 1020.5 -1.4 65
2017-09-29 16:00:00 25 16 Sudoeste 28 Sur 0 1021 -1.4 65
2017-09-29 15:00:00 24.6 19 Sudoeste 28 Sudoeste 0 1021.5 -1.3 67
2017-09-29 14:00:00 24.4 17 Sur 24 Sudoeste 0 1021.9 -1.1 66
2017-09-29 13:00:00 24.5 14 Sur 22 Sudoeste 0 1022.4 -0.5 65
2017-09-29 12:00:00 24.8 12 Sudoeste 32 Sudoeste 0 1022.8 0.1 62
2017-09-29 11:00:00 22.6 10 Norte 22 Norte 0 1023 0.4 65
2017-09-29 10:00:00 20.3 17 Norte 24 Norte 0 1022.9 0.5 74
2017-09-29 09:00:00 18.3 15 Norte 21 Norte 0 1022.7 0.3 81
2017-09-29 08:00:00 17.6 14 Norte 18 Norte 0 1022.6 0 84
2017-09-29 07:00:00 17.7 15 Norte 22 Norte 0 1022.4 -0.4 85
2017-09-29 06:00:00 17.7 16 Norte 24 Norte 0 1022.4 -0.8 84
2017-09-29 05:00:00 18.1 15 Norte 21 Norte 0 1022.6 -0.8 84
2017-09-29 04:00:00 18.1 12 Norte 17 Norte 0 1022.8 -0.6 84
2017-09-29 03:00:00 19.1 13 Norte 18 Norte 0 1023.2 -0.5 82
2017-09-29 02:00:00 18.9 15 Norte 21 Norte 0 1023.4 -0.6 82
2017-09-29 01:00:00 19.4 10 Norte 15 Norte 0 1023.4 -0.5 81
2017-09-29 00:00:00 20.2 5 Norte 8 Norte 0 1023.7 0.1 78
2017-09-28 23:00:00 20.7 7 Noroeste -- -- 0 1024 0.6 76
2017-09-28 22:00:00 21.9 6 Noroeste 13 Sudoeste 0 1023.9 0.6 73
2017-09-28 21:00:00 22.8 6 Sudoeste 13 Sudoeste 0 1023.6 0.3 73
2017-09-28 20:00:00 23 8 Sudoeste 18 Sudoeste 0 1023.4 0.1 70
2017-09-28 19:00:00 24.1 13 Sudoeste 21 Sudoeste 0 1023.3 -0.3 64
2017-09-28 18:00:00 24.9 13 Sudoeste 22 Sudoeste 0 1023.3 -0.7 60
2017-09-28 17:00:00 25 14 Sur 21 Sudoeste 0 1023.3 -1 58
2017-09-28 16:00:00 25.3 12 Sur 22 Sur 0 1023.6 -1.1 57
2017-09-28 15:00:00 25.3 15 Sur 24 Sur 0 1024 -1 56
2017-09-28 14:00:00 25.3 13 Sur 24 Sur 0 1024.3 -0.8 62
2017-09-28 13:00:00 24.7 14 Sur 18 Sudeste 0 1024.7 0.2 64
2017-09-28 12:00:00 24.1 3 Nordeste 17 Norte 0 1025 1 64
2017-09-28 11:00:00 21.7 13 Norte 17 Norte 0 1025.1 1.6 70
2017-09-28 10:00:00 20.2 15 Norte 21 Norte 0 1024.5 1.2 75
2017-09-28 09:00:00 18.5 14 Norte 17 Norte 0 1024 0.9 82
2017-09-28 08:00:00 18 11 Norte 17 Norte 0 1023.5 0.5 84
2017-09-28 07:00:00 18.7 12 Norte 18 Norte 0 1023.3 0.3 82
2017-09-28 06:00:00 18.9 14 Norte 18 Norte 0 1023.1 -0.2 82
2017-09-28 05:00:00 18.9 12 Norte 17 Norte 0 1023 -0.4 82
2017-09-28 04:00:00 18.4 13 Norte 17 Norte 0 1023 -0.3 83
2017-09-28 03:00:00 18.9 12 Norte 24 Nordeste 0 1023.3 0.1 82
2017-09-28 02:00:00 19.3 13 Norte 26 Nordeste 0 1023.4 0.6 80
2017-09-28 01:00:00 19.6 12 Norte 26 Nordeste 0 1023.3 0.8 79
2017-09-28 00:00:00 20.2 7 Norte 9 Norte 0 1023.2 1.1 76
2017-09-27 23:00:00 20.7 4 Norte 8 Noroeste 0 1022.8 1.2 74
2017-09-27 22:00:00 21.6 5 Noroeste 11 Sudoeste 0 1022.5 1.1 72
2017-09-27 21:00:00 22.3 10 Sudoeste 15 Sudoeste 0 1022.1 1.2 68
2017-09-27 20:00:00 22.8 11 Sudoeste 21 Sudoeste 0 1021.6 0.6 65
2017-09-27 19:00:00 23.9 15 Sudoeste 24 Sudoeste 0 1021.4 0.3 59
2017-09-27 18:00:00 24.5 18 Sudoeste 30 Sudoeste 0 1020.9 -0.5 56
2017-09-27 17:00:00 24.8 19 Sudoeste 28 Sudoeste 0 1021 -0.8 56
2017-09-27 16:00:00 25 19 Sudoeste 30 Sur 0 1021.1 -0.8 56
2017-09-27 15:00:00 24.8 19 Sudoeste 30 Sudoeste 0 1021.4 -0.6 56
2017-09-27 14:00:00 24.7 18 Sur 28 Sudoeste 0 1021.8 -0.2 56
2017-09-27 13:00:00 24.8 14 Sur 22 Sur 0 1021.9 0.1 57
2017-09-27 12:00:00 24.3 11 Sur 17 Sur 0 1022 0.6 59
2017-09-27 11:00:00 22.8 4 Nordeste 13 Norte 0 1022 1 64
2017-09-27 10:00:00 20.7 10 Norte 15 Norte 0 1021.8 1.1 71
2017-09-27 09:00:00 18.7 13 Norte 18 Norte 0 1021.4 0.7 78
2017-09-27 08:00:00 17.2 13 Norte 17 Norte 0 1021 0.4 83
2017-09-27 07:00:00 17.6 11 Norte 17 Norte 0 1020.7 0.1 81
2017-09-27 06:00:00 18 10 Norte 17 Norte 0 1020.7 -0.2 80
2017-09-27 05:00:00 18.2 11 Norte 15 Norte 0 1020.6 -0.5 78
2017-09-27 04:00:00 18.9 6 Norte 11 Norte 0 1020.6 -0.7 78
2017-09-27 03:00:00 19.8 0 Calma 9 Norte 0 1020.9 -0.5 74
2017-09-27 02:00:00 20.9 3 Norte 11 Sudeste 0 1021.1 -0.2 69
2017-09-27 01:00:00 22.5 8 Sur 13 Sudeste 0 1021.3 0.1 59
2017-09-27 00:00:00 22.5 10 Sudeste 15 Sudeste 0 1021.4 0.6 58
2017-09-26 23:00:00 22.8 8 Sudeste 17 Este 0 1021.3 1.3 53
2017-09-26 22:00:00 22.7 12 Este 33 Este 0 1021.2 1.6 57
2017-09-26 21:00:00 22.4 6 Sudeste 18 Sur 0 1020.8 1.5 62
2017-09-26 20:00:00 22.4 11 Sur 17 Sur 0 1020 0.8 67
2017-09-26 19:00:00 22.8 10 Sur 21 Sudoeste 0 1019.6 0.3 66
2017-09-26 18:00:00 23.8 17 Sudoeste 28 Sudoeste 0 1019.3 0 61
2017-09-26 17:00:00 24.5 20 Sudoeste 30 Sudoeste 0 1019.2 -0.5 56
2017-09-26 16:00:00 24.5 22 Sudoeste 32 Sudoeste 0 1019.3 -0.6 55
2017-09-26 15:00:00 24.6 22 Sudoeste 32 Sudoeste 0 1019.3 -0.7 54
2017-09-26 14:00:00 24.9 21 Sudoeste 32 Sudoeste 0 1019.7 -0.2 51
2017-09-26 13:00:00 24 15 Sudoeste 22 Sudoeste 0 1019.9 0.1 54
2017-09-26 12:00:00 24 4 Oeste 18 Noroeste 0 1020 0.2 54
2017-09-26 11:00:00 23.3 9 Norte 17 Norte 0 1019.9 0.4 56
2017-09-26 10:00:00 21 13 Norte 21 Norte 0 1019.8 0.7 64
2017-09-26 09:00:00 18.9 16 Norte 22 Norte 0 1019.8 0.9 72
2017-09-26 08:00:00 18.1 15 Norte 18 Norte 0 1019.5 0.5 77
2017-09-26 07:00:00 18.2 12 Norte 15 Norte 0 1019.1 0.4 76
2017-09-26 06:00:00 18.2 12 Norte 15 Norte 0 1018.9 -0.2 76
2017-09-26 05:00:00 17.8 8 Norte 18 Norte 0 1019 -0.3 79
2017-09-26 04:00:00 17.8 15 Norte 22 Norte 0 1018.7 -0.7 80
2017-09-26 03:00:00 18 15 Norte 24 Norte 0 1019.1 -0.3 80
2017-09-26 02:00:00 18.1 13 Norte 22 Norte 0 1019.3 -0.2 80
2017-09-26 01:00:00 18.6 16 Norte 21 Norte 0 1019.4 0.1 77
2017-09-26 00:00:00 19.3 14 Norte 35 Norte 0 1019.4 0.7 72
2017-09-25 23:00:00 20.9 14 Norte 42 Nordeste 0 1019.5 1.7 63
2017-09-25 22:00:00 21.9 17 Nordeste 32 Nordeste 0.2 1019.3 2.1 59
2017-09-25 21:00:00 22.6 23 Este 39 Nordeste 1.6 1018.7 1.9 59
2017-09-25 20:00:00 23.6 23 Este 35 Este 0 1017.8 1.2 61
2017-09-25 19:00:00 23.8 30 Este 46 Este 0 1017.2 0.3 68
2017-09-25 18:00:00 24.7 33 Este 41 Este 0 1016.8 -0.1 63
2017-09-25 17:00:00 24.9 33 Este 41 Este 0 1016.6 -0.6 64
2017-09-25 16:00:00 25.5 27 Este 35 Este 0 1016.9 -0.2 60
2017-09-25 15:00:00 25.6 27 Este 35 Este 0 1016.9 -0.3 59
2017-09-25 14:00:00 25.4 24 Este 32 Este 0 1017.2 0 66
2017-09-25 13:00:00 24.7 20 Este 42 Este 0 1017.1 0.4 71
2017-09-25 12:00:00 24.4 24 Este 39 Este 0 1017.2 0.8 71
2017-09-25 11:00:00 22.9 16 Norte 26 Norte 0 1017.2 1.1 74
2017-09-25 10:00:00 21.2 14 Norte 22 Norte 0 1016.7 0.9 81
2017-09-25 09:00:00 19.9 15 Norte 21 Norte 0 1016.4 0.6 86
2017-09-25 08:00:00 19.4 14 Norte 18 Norte 0 1016.1 -0.3 88
2017-09-25 07:00:00 19.3 10 Norte 15 Norte 0 1015.8 -0.9 89
2017-09-25 06:00:00 19.3 5 Norte 15 Norte 0 1015.8 -1.7 90
2017-09-25 05:00:00 19.5 9 Norte 17 Norte 0 1016.4 -1.6 89
2017-09-25 04:00:00 19.6 12 Norte 15 Norte 0 1016.7 -1.5 88
2017-09-25 03:00:00 19.8 9 Norte 15 Norte 0 1017.5 -1 87
2017-09-25 02:00:00 20.1 9 Norte 13 Norte 0 1018 -0.6 85
2017-09-25 01:00:00 20.6 11 Norte 13 Norte 0 1018.2 -0.4 84
2017-09-25 00:00:00 21 6 Noroeste -- -- 0 1018.5 0.2 84
2017-09-24 23:00:00 22.4 4 Oeste 8 Oeste 0 1018.6 0.5 81
2017-09-24 22:00:00 22.3 5 Noroeste 11 Oeste 0 1018.6 0.7 83
2017-09-24 21:00:00 22.8 10 Oeste 17 Oeste 0 1018.3 0.5 83
2017-09-24 20:00:00 23.5 14 Oeste 28 Oeste 0 1018.1 -0.1 80
2017-09-24 19:00:00 24.3 21 Sudoeste 33 Sudoeste 0 1017.9 -0.4 75
2017-09-24 18:00:00 25 25 Sudoeste 33 Sudoeste 0 1017.8 -0.7 72
2017-09-24 17:00:00 25.3 29 Sudoeste 35 Sudoeste 0 1018.2 -0.6 70
2017-09-24 16:00:00 25.6 27 Sudoeste 37 Sudoeste 0 1018.3 -1 69
2017-09-24 15:00:00 25.3 29 Sudoeste 39 Sudoeste 0 1018.5 -1 70
2017-09-24 14:00:00 25.3 28 Sudoeste 39 Sudoeste 0 1018.8 -0.6 70
2017-09-24 13:00:00 25.2 27 Sudoeste 37 Sudoeste 0 1019.3 0.1 69
2017-09-24 12:00:00 25 24 Sudoeste 33 Oeste 0 1019.5 0.5 69
2017-09-24 11:00:00 23.1 10 Norte 18 Norte 0 1019.4 0.5 68
2017-09-24 10:00:00 21.4 12 Norte 18 Norte 0 1019.2 0.4 75
2017-09-24 09:00:00 19.8 13 Norte 21 Norte 0 1019 0.3 80
2017-09-24 08:00:00 18.8 5 Norte 13 Norte 0 1018.9 0.2 86
2017-09-24 07:00:00 18.7 11 Norte 17 Norte 0 1018.8 -0.3 86
2017-09-24 06:00:00 19 10 Norte 17 Norte 0 1018.7 -0.8 86
2017-09-24 05:00:00 19.1 11 Norte 15 Norte 0 1018.7 -0.9 87
2017-09-24 04:00:00 19.3 8 Norte 17 Norte 0 1019.1 -0.5 87
2017-09-24 03:00:00 19.2 9 Norte 13 Norte 0 1019.5 -0.5 87
2017-09-24 02:00:00 19.4 5 Norte 8 Norte 0 1019.6 -0.4 86
2017-09-24 01:00:00 20.1 3 Norte 5 Noroeste 0 1019.6 -0.1 84
2017-09-24 00:00:00 20.9 0 Calma 9 Norte 0 1020 0.8 81
2017-09-23 23:00:00 21.8 7 Norte 9 Norte 0 1020 1.3 79
2017-09-23 22:00:00 22.6 9 Sudoeste 15 Sudoeste 0 1019.7 1.1 75
2017-09-23 21:00:00 22.9 9 Sudoeste 15 Oeste 0 1019.2 0.7 73
2017-09-23 20:00:00 23.2 10 Sudoeste 17 Sudoeste 0 1018.7 -0.2 74
2017-09-23 19:00:00 23.9 13 Sudoeste 26 Sudoeste 0 1018.6 -0.4 72
2017-09-23 18:00:00 24.5 20 Sudoeste 26 Sudoeste 0 1018.5 -1.2 69
2017-09-23 17:00:00 23.7 15 Sudoeste 30 Sudoeste 0 1018.9 -1.3 72
2017-09-23 16:00:00 25.3 17 Sudoeste 26 Sur 0 1019 -1.4 65
2017-09-23 15:00:00 24.9 16 Sur 24 Sur 0 1019.7 -1 65
2017-09-23 14:00:00 24.7 13 Sudeste 21 Sudeste 0 1020.2 -0.6 67
2017-09-23 13:00:00 25.2 13 Sur 18 Sur 0 1020.4 -0.3 63
2017-09-23 12:00:00 25.2 5 Este 18 Norte 0 1020.7 0.1 59
2017-09-23 11:00:00 22 15 Norte 28 Norte 0 1020.8 0.6 63
2017-09-23 10:00:00 19.2 20 Norte 28 Norte 0 1020.7 0.7 74
2017-09-23 09:00:00 17.7 18 Norte 26 Norte 0 1020.6 1 80
2017-09-23 08:00:00 17.2 17 Norte 24 Norte 0 1020.2 0.5 82
2017-09-23 07:00:00 17.6 13 Norte 22 Norte 0 1020 -0.1 81
2017-09-23 06:00:00 17.8 16 Norte 22 Norte 0 1019.6 -1 81
2017-09-23 05:00:00 18.1 15 Norte 22 Norte 0 1019.7 -1.2 81
2017-09-23 04:00:00 18.5 15 Norte 22 Norte 0 1020.1 -0.8 80
2017-09-23 03:00:00 19 17 Norte 24 Norte 0 1020.6 -0.5 79
2017-09-23 02:00:00 19.6 18 Norte 24 Norte 0 1020.9 -0.1 76
2017-09-23 01:00:00 19.8 17 Norte 22 Norte 0 1020.9 0.2 75
2017-09-23 00:00:00 20.2 15 Norte 22 Norte 0 1021.1 0.9 73